Time;durP1;ratioP1;P1;durP2;ratioP2;P2;SDS_P1;SDS_P2;PMS_P1;PMS_P2;Temp;Humidity;BMP_temperature;BMP_pressure;BME280_temperature;BME280_humidity;BME280_pressure;Samples;Min_cycle;Max_cycle;Signal;HPM_P1;HPM_P2
2022/04/21 00:01:35;;;;;;;4.47;2.13;;;9.20;95.40;;;;;;5048788;28;20033;-57
2022/04/21 00:04:01;;;;;;;3.00;1.88;;;9.20;95.80;;;;;;5057390;28;20021;-58
2022/04/21 00:06:26;;;;;;;5.07;2.55;;;9.20;96.10;;;;;;5026566;28;20041;-55
2022/04/21 00:08:52;;;;;;;7.03;2.50;;;9.20;95.90;;;;;;5042474;28;20036;-57
2022/04/21 00:11:18;;;;;;;4.70;2.30;;;9.20;95.90;;;;;;5043803;28;20663;-58
2022/04/21 00:13:43;;;;;;;10.68;2.40;;;9.10;96.20;;;;;;5031345;28;20060;-59
2022/04/21 00:16:09;;;;;;;6.75;2.15;;;9.10;96.30;;;;;;5045333;28;20100;-55
2022/04/21 00:18:34;;;;;;;5.43;2.60;;;9.10;96.30;;;;;;5049273;28;20048;-56
2022/04/21 00:21:01;;;;;;;5.68;2.60;;;9.10;96.40;;;;;;5059074;28;20029;-58
2022/04/21 00:23:27;;;;;;;4.55;2.40;;;9.10;96.20;;;;;;5048688;28;20025;-56
2022/04/21 00:26:03;;;;;;;4.47;2.33;;;9.10;96.30;;;;;;5059480;28;20675;-57
2022/04/21 00:28:29;;;;;;;4.00;2.10;;;9.10;95.90;;;;;;5056204;28;20111;-56
2022/04/21 00:30:55;;;;;;;9.23;2.65;;;9.20;95.90;;;;;;5061647;28;20112;-57
2022/04/21 00:33:21;;;;;;;5.32;2.72;;;9.10;96.00;;;;;;5054327;28;20025;-56
2022/04/21 00:35:47;;;;;;;5.28;2.53;;;9.10;96.00;;;;;;5059854;28;20086;-55
2022/04/21 00:38:13;;;;;;;3.50;2.20;;;9.10;95.90;;;;;;5059062;28;20033;-56
2022/04/21 00:40:38;;;;;;;7.13;2.95;;;9.10;95.90;;;;;;5052949;28;20032;-56
2022/04/21 00:43:04;;;;;;;4.45;2.13;;;9.10;96.00;;;;;;5052476;28;20500;-59
2022/04/21 00:45:31;;;;;;;4.47;2.72;;;9.10;96.00;;;;;;5050990;28;20504;-58
2022/04/21 00:47:58;;;;;;;4.82;2.70;;;9.10;96.40;;;;;;5051865;28;20025;-56
2022/04/21 00:50:36;;;;;;;9.75;2.60;;;9.00;96.50;;;;;;5050574;28;20024;-54
2022/04/21 00:53:02;;;;;;;6.25;2.15;;;9.00;96.80;;;;;;5051230;28;20029;-55
2022/04/21 00:55:30;;;;;;;4.43;2.45;;;8.90;96.90;;;;;;5047692;28;20036;-58
2022/04/21 00:57:57;;;;;;;5.38;2.33;;;8.90;96.90;;;;;;5048539;28;20063;-55
2022/04/21 01:00:23;;;;;;;3.72;2.28;;;8.90;97.10;;;;;;5056132;28;20103;-56
2022/04/21 01:02:49;;;;;;;3.83;2.65;;;8.80;97.10;;;;;;5049100;28;20896;-57
2022/04/21 01:05:30;;;;;;;4.22;2.20;;;8.80;97.50;;;;;;5048786;28;20061;-59
2022/04/21 01:08:04;;;;;;;3.70;2.10;;;8.70;97.90;;;;;;5047011;28;20017;-57
2022/04/21 01:10:33;;;;;;;3.45;2.70;;;8.70;97.90;;;;;;5054105;28;20025;-58
2022/04/21 01:12:59;;;;;;;5.72;2.40;;;8.70;98.10;;;;;;5048954;28;20568;-57
2022/04/21 01:15:25;;;;;;;6.95;2.67;;;8.60;98.20;;;;;;5054402;28;20033;-58
2022/04/21 01:17:54;;;;;;;5.40;2.60;;;8.60;98.30;;;;;;5049129;28;20492;-56
2022/04/21 01:20:24;;;;;;;4.15;2.40;;;8.60;98.50;;;;;;5051843;28;20116;-56
2022/04/21 01:22:50;;;;;;;4.78;2.30;;;8.50;98.90;;;;;;5052080;28;20067;-57
2022/04/21 01:25:16;;;;;;;5.03;2.40;;;8.50;98.90;;;;;;5050333;28;20098;-59
2022/04/21 01:27:43;;;;;;;11.40;2.97;;;8.50;99.00;;;;;;5055888;28;20295;-54
2022/04/21 01:30:10;;;;;;;5.93;3.05;;;8.50;99.00;;;;;;5053377;28;20115;-57
2022/04/21 01:32:36;;;;;;;6.10;3.15;;;8.40;99.10;;;;;;5051699;28;20082;-54
2022/04/21 01:35:06;;;;;;;4.95;2.90;;;8.40;99.20;;;;;;5051779;28;20041;-55
2022/04/21 01:43:01;;;;;;;4.00;2.55;;;8.20;99.90;;;;;;5054131;28;20040;-57
2022/04/21 01:45:27;;;;;;;3.72;2.53;;;8.20;99.90;;;;;;5050246;28;20028;-58
2022/04/21 01:47:52;;;;;;;3.47;2.40;;;8.10;99.90;;;;;;5058519;28;20491;-57
2022/04/21 01:50:18;;;;;;;4.30;2.38;;;8.10;99.90;;;;;;5067171;28;20159;-58
2022/04/21 01:52:44;;;;;;;4.85;2.80;;;8.10;99.90;;;;;;5060899;28;20049;-59
2022/04/21 01:55:10;;;;;;;11.50;3.35;;;8.00;99.90;;;;;;5061733;28;20480;-56
2022/04/21 01:57:36;;;;;;;5.32;2.35;;;7.90;99.90;;;;;;5043485;28;20412;-59
2022/04/21 02:00:01;;;;;;;6.65;2.80;;;7.90;99.90;;;;;;5050001;28;20033;-57
2022/04/21 02:02:29;;;;;;;4.95;2.50;;;7.80;99.90;;;;;;5048622;28;20033;-58
2022/04/21 02:04:55;;;;;;;5.65;2.33;;;7.70;99.90;;;;;;5050931;28;20029;-59
2022/04/21 02:07:21;;;;;;;6.43;2.92;;;7.60;99.90;;;;;;5050592;28;20029;-52
2022/04/21 02:09:46;;;;;;;6.40;2.65;;;7.50;99.90;;;;;;5050571;28;20029;-57
2022/04/21 02:12:12;;;;;;;5.05;2.85;;;7.40;99.90;;;;;;5049487;28;20507;-56
2022/04/21 02:14:37;;;;;;;6.05;2.85;;;7.30;99.90;;;;;;5039776;28;20468;-57
2022/04/21 02:17:05;;;;;;;5.43;2.80;;;7.30;99.90;;;;;;5048501;28;20807;-59
2022/04/21 02:19:32;;;;;;;9.35;3.30;;;7.20;99.90;;;;;;5057869;28;20025;-57
2022/04/21 02:21:57;;;;;;;4.85;2.35;;;7.10;99.90;;;;;;5056882;28;20049;-59
2022/04/21 02:24:22;;;;;;;4.40;2.45;;;7.20;99.90;;;;;;5034625;28;20072;-54
2022/04/21 02:26:48;;;;;;;5.38;3.10;;;7.30;99.90;;;;;;5057917;28;20029;-56
2022/04/21 02:29:13;;;;;;;5.47;2.90;;;7.40;99.90;;;;;;5054504;28;20025;-60
2022/04/21 02:31:39;;;;;;;5.40;2.60;;;7.40;99.90;;;;;;5046948;28;20033;-58
2022/04/21 02:34:04;;;;;;;7.25;3.35;;;7.50;99.90;;;;;;5052241;28;20588;-58
2022/04/21 02:36:30;;;;;;;5.35;2.65;;;7.50;99.90;;;;;;5056884;28;20056;-60
2022/04/21 02:38:55;;;;;;;5.03;2.85;;;7.60;99.90;;;;;;5059405;28;20338;-57
2022/04/21 02:41:21;;;;;;;5.70;2.63;;;7.60;99.90;;;;;;5049675;28;20388;-57
2022/04/21 02:43:46;;;;;;;6.30;3.15;;;7.60;99.90;;;;;;5058486;28;20028;-59
2022/04/21 02:46:13;;;;;;;4.07;2.55;;;7.70;99.90;;;;;;5055413;28;20446;-59
2022/04/21 02:48:39;;;;;;;7.13;2.78;;;7.70;99.90;;;;;;5053880;28;20065;-58
2022/04/21 02:51:04;;;;;;;4.13;2.58;;;7.60;99.90;;;;;;5055113;28;20476;-55
2022/04/21 02:59:00;;;;;;;5.65;2.38;;;7.70;99.90;;;;;;5050046;28;20048;-56
2022/04/21 03:01:26;;;;;;;2.67;2.15;;;7.70;99.90;;;;;;5050691;28;20040;-60
2022/04/21 03:03:54;;;;;;;5.25;2.50;;;7.60;99.90;;;;;;5059339;28;20572;-60
2022/04/21 03:06:20;;;;;;;4.50;2.40;;;7.50;99.90;;;;;;5059566;28;20107;-58
2022/04/21 03:08:45;;;;;;;4.75;2.55;;;7.50;99.90;;;;;;5052795;28;20115;-59
2022/04/21 03:11:11;;;;;;;7.90;2.55;;;7.50;99.90;;;;;;5059583;28;20032;-57
2022/04/21 03:13:36;;;;;;;4.93;3.13;;;7.40;99.90;;;;;;5056032;28;20029;-59
2022/04/21 03:16:02;;;;;;;5.32;2.72;;;7.30;99.90;;;;;;5055475;28;20070;-57
2022/04/21 03:18:28;;;;;;;11.75;2.88;;;7.20;99.90;;;;;;5058724;28;20407;-57
2022/04/21 03:26:23;;;;;;;4.20;2.70;;;6.80;99.90;;;;;;5049381;28;20044;-58
2022/04/21 03:28:49;;;;;;;5.72;2.67;;;6.70;99.90;;;;;;5061742;28;20029;-59
2022/04/21 03:31:14;;;;;;;5.40;2.72;;;6.60;99.90;;;;;;5055096;28;20404;-57
2022/04/21 03:33:40;;;;;;;6.78;3.08;;;6.60;99.90;;;;;;5062060;28;20495;-60
2022/04/21 03:36:06;;;;;;;4.40;3.10;;;6.50;99.90;;;;;;5054831;28;20036;-60
2022/04/21 03:38:31;;;;;;;5.35;2.80;;;6.50;99.90;;;;;;5052301;28;20454;-61
2022/04/21 03:40:57;;;;;;;6.75;2.80;;;6.40;99.90;;;;;;5053552;28;20032;-58
2022/04/21 03:43:22;;;;;;;9.75;3.17;;;6.40;99.90;;;;;;5046384;28;20493;-59
2022/04/21 03:45:48;;;;;;;3.75;2.55;;;6.30;99.90;;;;;;5058680;28;20024;-59
2022/04/21 03:48:14;;;;;;;8.45;3.25;;;6.30;99.90;;;;;;5065492;28;20036;-59
2022/04/21 03:50:39;;;;;;;6.65;3.67;;;6.20;99.90;;;;;;5058650;28;20396;-59
2022/04/21 03:53:05;;;;;;;8.13;3.40;;;6.30;99.90;;;;;;5040796;28;20048;-60
2022/04/21 03:55:31;;;;;;;6.28;3.75;;;6.30;99.90;;;;;;5055629;28;20433;-58
2022/04/21 03:57:57;;;;;;;4.85;3.05;;;6.30;99.90;;;;;;5067099;28;20024;-63
2022/04/21 04:00:23;;;;;;;5.47;2.80;;;6.30;99.90;;;;;;5060300;28;20491;-60
2022/04/21 04:02:48;;;;;;;6.80;3.42;;;6.30;99.90;;;;;;5061356;28;20028;-58
2022/04/21 04:05:14;;;;;;;7.47;2.92;;;6.30;99.90;;;;;;5055436;28;20025;-60
2022/04/21 04:13:07;;;;;;;7.75;3.15;;;6.40;99.90;;;;;;5051041;28;20514;-59
2022/04/21 04:15:33;;;;;;;9.68;4.50;;;6.40;99.90;;;;;;5058106;28;20037;-58
2022/04/21 04:17:58;;;;;;;6.75;3.08;;;6.30;99.90;;;;;;5050006;28;20098;-58
2022/04/21 04:20:24;;;;;;;7.75;2.88;;;6.30;99.90;;;;;;5058271;28;20031;-55
2022/04/21 04:22:49;;;;;;;7.28;2.97;;;6.30;99.90;;;;;;5065150;28;20036;-56
2022/04/21 04:25:15;;;;;;;4.65;3.08;;;6.30;99.90;;;;;;5061124;28;20059;-61
2022/04/21 04:27:40;;;;;;;12.05;3.45;;;6.30;99.90;;;;;;5061315;28;20054;-60
2022/04/21 04:30:08;;;;;;;7.32;3.03;;;6.40;99.90;;;;;;5060213;28;20028;-60
2022/04/21 04:32:34;;;;;;;7.93;3.22;;;6.40;99.90;;;;;;5057805;28;20036;-60
2022/04/21 04:35:00;;;;;;;12.40;3.40;;;6.50;99.90;;;;;;5058740;28;20037;-58
2022/04/21 04:37:26;;;;;;;6.53;3.35;;;6.60;99.90;;;;;;5051290;28;20033;-59
2022/04/21 04:39:52;;;;;;;3.92;2.53;;;6.60;99.90;;;;;;5053232;28;20044;-59
2022/04/21 04:42:17;;;;;;;4.88;2.72;;;6.60;99.90;;;;;;5050790;28;20040;-58
2022/04/21 04:44:44;;;;;;;5.30;3.13;;;6.60;99.90;;;;;;5053050;28;20101;-59
2022/04/21 04:47:10;;;;;;;5.20;3.08;;;6.70;99.90;;;;;;5058391;28;20057;-58
2022/04/21 04:49:35;;;;;;;4.00;2.60;;;6.70;99.90;;;;;;5059616;28;20090;-60
2022/04/21 04:52:01;;;;;;;7.15;3.22;;;6.70;99.90;;;;;;5060741;28;20668;-60
2022/04/21 04:54:29;;;;;;;4.03;2.78;;;6.80;99.90;;;;;;5065655;28;20029;-59
2022/04/21 04:56:55;;;;;;;5.70;3.00;;;6.90;99.90;;;;;;5053337;28;20037;-59
2022/04/21 05:01:57;;;;;;;4.57;2.60;;;7.00;99.90;;;;;;5086052;28;20044;-59
2022/04/21 05:04:25;;;;;;;6.05;2.58;;;7.00;99.90;;;;;;5087424;28;20027;-59
2022/04/21 05:06:55;;;;;;;9.10;2.70;;;7.10;99.90;;;;;;5091388;28;20012;-58
2022/04/21 05:09:22;;;;;;;8.32;2.85;;;7.30;99.90;;;;;;5092060;28;20559;-58
2022/04/21 05:11:53;;;;;;;6.18;2.83;;;7.50;99.90;;;;;;5069383;28;20029;-59
2022/04/21 05:14:19;;;;;;;3.47;2.60;;;7.70;99.90;;;;;;5063882;28;20097;-58
2022/04/21 05:16:45;;;;;;;8.05;3.20;;;7.90;99.90;;;;;;5061339;28;20048;-60
2022/04/21 05:19:16;;;;;;;5.47;2.97;;;8.20;99.90;;;;;;5067489;28;20395;-60
2022/04/21 05:21:42;;;;;;;5.60;2.95;;;8.40;99.90;;;;;;5063983;28;20079;-59
2022/04/21 05:24:12;;;;;;;6.50;2.78;;;8.60;99.90;;;;;;5069939;28;20552;-59
2022/04/21 05:26:40;;;;;;;6.45;2.58;;;8.80;99.90;;;;;;5069894;28;20033;-59
2022/04/21 05:31:54;;;;;;;4.70;2.88;;;9.90;99.90;;;;;;5070325;28;20043;-59
2022/04/21 05:34:20;;;;;;;5.10;2.53;;;10.70;99.90;;;;;;5071814;28;20115;-61
2022/04/21 05:36:46;;;;;;;6.75;2.70;;;11.70;97.80;;;;;;5070197;28;20067;-55
2022/04/21 05:39:12;;;;;;;4.75;2.33;;;12.20;95.70;;;;;;5069246;28;20032;-60
2022/04/21 05:41:38;;;;;;;2.95;1.92;;;12.70;95.00;;;;;;5066333;28;20040;-60
2022/04/21 05:44:06;;;;;;;5.13;2.22;;;13.10;93.10;;;;;;5070209;28;20103;-60
2022/04/21 05:46:31;;;;;;;6.85;2.58;;;13.50;92.50;;;;;;5068950;28;20029;-60
2022/04/21 05:48:57;;;;;;;6.60;2.83;;;13.60;91.60;;;;;;5062496;28;20024;-60
2022/04/21 05:51:23;;;;;;;7.90;2.78;;;13.50;91.80;;;;;;5070560;28;20146;-58
2022/04/21 05:53:49;;;;;;;4.65;2.88;;;13.40;91.60;;;;;;5070435;28;20153;-61
2022/04/21 05:56:15;;;;;;;9.90;3.22;;;13.90;90.90;;;;;;5070079;28;20144;-61
2022/04/21 05:58:41;;;;;;;4.63;2.70;;;14.80;89.20;;;;;;5068691;28;20025;-60
2022/04/21 06:01:08;;;;;;;5.75;3.58;;;15.30;85.30;;;;;;5069190;28;20056;-61
2022/04/21 06:03:35;;;;;;;6.32;3.28;;;16.20;82.80;;;;;;5068204;28;20021;-60
2022/04/21 06:06:00;;;;;;;6.13;2.85;;;16.90;79.70;;;;;;5068364;28;20054;-60
2022/04/21 06:08:26;;;;;;;6.20;3.17;;;16.60;80.10;;;;;;5070454;28;20542;-61
2022/04/21 06:10:52;;;;;;;11.27;3.05;;;16.90;78.70;;;;;;5070052;28;20100;-61
2022/04/21 06:13:18;;;;;;;8.70;3.05;;;16.90;77.40;;;;;;5070465;28;20071;-61
2022/04/21 06:15:44;;;;;;;6.18;2.80;;;17.20;77.40;;;;;;5068730;28;20486;-59
2022/04/21 06:18:09;;;;;;;6.40;2.63;;;17.80;75.50;;;;;;5070417;28;20125;-61
2022/04/21 06:20:35;;;;;;;9.25;2.70;;;17.70;75.50;;;;;;5060669;28;20037;-60
2022/04/21 06:23:01;;;;;;;10.23;2.80;;;18.60;74.30;;;;;;5061790;28;20036;-65
2022/04/21 06:25:26;;;;;;;5.00;2.60;;;19.20;71.80;;;;;;5069729;28;20032;-61
2022/04/21 06:27:52;;;;;;;8.77;2.40;;;19.70;70.70;;;;;;5066912;28;20074;-61
2022/04/21 06:30:19;;;;;;;7.47;3.22;;;20.50;68.30;;;;;;5069888;28;20085;-58
2022/04/21 06:32:45;;;;;;;5.07;3.08;;;20.60;68.20;;;;;;5061588;28;20047;-61
2022/04/21 06:35:11;;;;;;;7.93;3.03;;;20.10;67.70;;;;;;5069765;28;20641;-62
2022/04/21 06:37:37;;;;;;;6.88;2.70;;;20.60;66.40;;;;;;5069197;28;20032;-61
2022/04/21 06:40:03;;;;;;;3.90;2.70;;;21.00;64.60;;;;;;5068163;28;20111;-58
2022/04/21 06:42:29;;;;;;;4.18;2.50;;;21.50;62.80;;;;;;5070641;28;20028;-59
2022/04/21 06:48:02;;;;;;;7.65;2.40;;;20.90;64.30;;;;;;5028089;28;20095;-59
2022/04/21 06:50:31;;;;;;;6.90;2.72;;;21.60;62.80;;;;;;5036178;28;20047;-61
2022/04/21 06:52:57;;;;;;;4.45;2.35;;;22.30;60.50;;;;;;5050747;28;20488;-59
2022/04/21 06:55:22;;;;;;;10.00;2.42;;;23.00;58.40;;;;;;5060033;28;20032;-58
2022/04/21 06:57:49;;;;;;;7.80;2.55;;;23.20;57.30;;;;;;5063727;28;20495;-61
2022/04/21 07:00:15;;;;;;;4.85;2.47;;;22.60;57.50;;;;;;5048424;28;20132;-58
2022/04/21 07:02:41;;;;;;;7.05;2.50;;;22.70;58.90;;;;;;5063170;28;20113;-59
2022/04/21 07:05:10;;;;;;;8.60;2.65;;;23.60;57.30;;;;;;5066378;28;20020;-58
2022/04/21 07:07:36;;;;;;;12.40;2.67;;;22.70;57.00;;;;;;5063825;28;20438;-59
2022/04/21 07:10:02;;;;;;;8.57;2.55;;;23.10;57.70;;;;;;5067610;28;20106;-57
2022/04/21 07:12:29;;;;;;;6.35;2.70;;;22.60;56.20;;;;;;5067184;28;20028;-59
2022/04/21 07:15:04;;;;;;;5.88;2.33;;;22.60;55.20;;;;;;5068394;28;20054;-58
2022/04/21 07:17:30;;;;;;;7.03;2.70;;;22.50;55.40;;;;;;5065782;28;20055;-59
2022/04/21 07:19:55;;;;;;;6.80;2.35;;;22.90;56.50;;;;;;5067692;28;20075;-58
2022/04/21 07:22:25;;;;;;;6.07;2.35;;;23.80;55.40;;;;;;5067102;28;20037;-59
2022/04/21 07:24:52;;;;;;;6.35;2.67;;;23.70;53.90;;;;;;5066337;28;20028;-60
2022/04/21 07:27:17;;;;;;;6.53;2.65;;;25.10;53.50;;;;;;5068732;28;20021;-59
2022/04/21 07:29:43;;;;;;;6.53;2.58;;;25.60;51.20;;;;;;5063355;28;20074;-59
2022/04/21 07:32:10;;;;;;;11.25;2.55;;;25.10;51.20;;;;;;5066920;28;20111;-59
2022/04/21 07:34:36;;;;;;;3.47;2.38;;;24.50;52.40;;;;;;5067987;28;20032;-59
2022/04/21 07:37:01;;;;;;;7.45;2.75;;;24.20;52.00;;;;;;5068166;28;20036;-59
2022/04/21 07:39:27;;;;;;;7.13;2.65;;;24.10;53.30;;;;;;5065698;28;20044;-59
2022/04/21 07:41:53;;;;;;;6.55;2.67;;;25.40;52.20;;;;;;5059889;28;20387;-59
2022/04/21 07:44:18;;;;;;;7.15;2.58;;;25.50;51.70;;;;;;5066610;28;20191;-59
2022/04/21 07:46:44;;;;;;;5.57;2.42;;;25.00;50.90;;;;;;5065288;28;20519;-59
2022/04/21 07:53:13;;;;;;;3.60;2.28;;;26.30;49.30;;;;;;5067835;28;20044;-57
2022/04/21 07:54:42;;;;;;;3.13;2.05;;;26.30;49.20;;;;;;5067460;28;20509;-58
2022/04/21 07:57:08;;;;;;;3.65;2.45;;;25.00;50.30;;;;;;5066913;28;20063;-61
2022/04/21 07:59:35;;;;;;;6.65;1.95;;;25.40;49.60;;;;;;5067530;28;20071;-61
2022/04/21 08:02:01;;;;;;;6.45;2.08;;;25.20;48.50;;;;;;5052313;28;20090;-61
2022/04/21 08:04:27;;;;;;;3.95;1.95;;;24.60;49.50;;;;;;5066729;28;20059;-59
2022/04/21 08:06:54;;;;;;;4.50;2.22;;;24.80;48.50;;;;;;5063393;28;20052;-59
2022/04/21 08:09:20;;;;;;;2.75;1.60;;;24.80;47.30;;;;;;5068729;28;20028;-59
2022/04/21 08:11:46;;;;;;;4.22;1.48;;;24.30;46.80;;;;;;5064881;28;20484;-62
2022/04/21 08:14:16;;;;;;;3.80;1.40;;;24.10;46.30;;;;;;5059372;28;20134;-59
2022/04/21 08:16:42;;;;;;;2.35;1.33;;;24.80;45.80;;;;;;5062389;28;20107;-59
2022/04/21 08:19:08;;;;;;;4.72;1.38;;;24.90;47.20;;;;;;5068072;28;20024;-59
2022/04/21 08:21:34;;;;;;;2.40;1.40;;;24.40;45.10;;;;;;5066873;28;20039;-61
2022/04/21 08:32:33;;;;;;;4.57;1.60;;;23.90;44.60;;;;;;5065729;28;20511;-61
2022/04/21 08:34:58;;;;;;;3.55;1.13;;;22.80;45.50;;;;;;5066127;28;20086;-61
2022/04/21 08:37:24;;;;;;;1.88;1.00;;;23.40;42.50;;;;;;5071720;28;20032;-60
2022/04/21 08:39:49;;;;;;;3.25;1.10;;;24.00;43.10;;;;;;5070668;28;20032;-61
2022/04/21 08:42:15;;;;;;;1.98;1.10;;;24.20;42.30;;;;;;5072157;28;20035;-61
2022/04/21 08:44:44;;;;;;;1.80;0.98;;;23.30;41.20;;;;;;5071219;28;20032;-61
2022/04/21 08:47:11;;;;;;;2.85;0.90;;;23.70;42.40;;;;;;5070560;28;20028;-59
2022/04/21 08:49:39;;;;;;;1.40;0.82;;;23.70;41.90;;;;;;5071613;28;20035;-59
2022/04/21 08:52:06;;;;;;;4.32;1.17;;;23.60;41.30;;;;;;5070983;28;20043;-57
2022/04/21 08:54:32;;;;;;;1.30;0.80;;;23.80;41.40;;;;;;5071105;28;20032;-61
2022/04/21 08:56:59;;;;;;;3.05;0.98;;;23.60;39.90;;;;;;5071026;28;20038;-61
2022/04/21 08:59:25;;;;;;;1.58;0.90;;;23.20;40.60;;;;;;5068867;28;20043;-61
2022/04/21 09:01:51;;;;;;;0.98;0.57;;;23.90;41.00;;;;;;5052736;28;20447;-61
2022/04/21 09:04:16;;;;;;;2.13;1.00;;;24.20;40.90;;;;;;5071818;28;20016;-61
2022/04/21 09:06:42;;;;;;;2.90;0.90;;;24.30;41.40;;;;;;5070629;28;20093;-61
2022/04/21 09:09:16;;;;;;;1.45;1.02;;;24.10;42.10;;;;;;5071692;28;20467;-61
2022/04/21 09:11:43;;;;;;;5.57;1.27;;;24.50;40.60;;;;;;5071254;28;20032;-60
2022/04/21 09:14:15;;;;;;;1.88;0.90;;;24.90;39.80;;;;;;5071637;28;20064;-61
2022/04/21 09:16:40;;;;;;;1.85;0.93;;;24.30;40.00;;;;;;5062962;28;20039;-61
2022/04/21 09:19:06;;;;;;;1.65;0.93;;;24.80;40.80;;;;;;5071207;28;20033;-61
2022/04/21 09:21:38;;;;;;;1.20;1.10;;;24.30;40.00;;;;;;5070882;28;20031;-61
2022/04/21 09:24:24;;;;;;;2.05;0.82;;;24.40;40.40;;;;;;5071677;28;20028;-61
2022/04/21 09:26:50;;;;;;;7.30;1.52;;;24.10;40.20;;;;;;5061994;28;20024;-60
2022/04/21 09:29:30;;;;;;;1.90;0.90;;;23.70;40.80;;;;;;5070353;28;20067;-61
2022/04/21 09:32:00;;;;;;;3.80;1.10;;;23.40;42.70;;;;;;5064963;28;20028;-61
2022/04/21 09:34:25;;;;;;;1.15;0.70;;;23.60;43.30;;;;;;5070392;28;20024;-61
2022/04/21 09:36:55;;;;;;;1.40;1.20;;;24.40;42.00;;;;;;5061796;28;20031;-59
2022/04/21 09:39:22;;;;;;;1.23;0.80;;;24.70;42.80;;;;;;5065653;28;20428;-61
2022/04/21 09:41:53;;;;;;;2.08;1.00;;;24.20;44.10;;;;;;5065396;28;20020;-60
2022/04/21 09:47:05;;;;;;;2.15;1.23;;;24.40;42.70;;;;;;5050960;28;20411;-60
2022/04/21 09:49:38;;;;;;;3.03;1.15;;;23.00;43.30;;;;;;5066912;28;20012;-60
2022/04/21 09:52:05;;;;;;;4.60;1.10;;;23.10;44.20;;;;;;5067436;28;20032;-62
2022/04/21 09:54:31;;;;;;;2.97;1.13;;;23.00;45.40;;;;;;5068668;28;20037;-60
2022/04/21 09:56:56;;;;;;;2.00;1.00;;;23.20;44.40;;;;;;5068235;28;20079;-60
2022/04/21 09:59:23;;;;;;;2.03;1.00;;;23.20;43.70;;;;;;5063439;28;20042;-60
2022/04/21 10:01:50;;;;;;;3.63;1.45;;;23.00;44.30;;;;;;5053102;28;20062;-60
2022/04/21 10:04:19;;;;;;;4.78;1.50;;;23.00;45.10;;;;;;5069263;28;20024;-60
2022/04/21 10:06:46;;;;;;;2.95;1.60;;;22.60;45.50;;;;;;5070576;28;20654;-61
2022/04/21 10:09:13;;;;;;;2.85;1.58;;;22.10;45.00;;;;;;5069850;28;20057;-60
2022/04/21 10:11:43;;;;;;;2.45;1.63;;;22.00;45.50;;;;;;5070499;28;20024;-60
2022/04/21 10:14:15;;;;;;;6.85;1.70;;;21.80;47.20;;;;;;5069264;28;20081;-58
2022/04/21 10:16:42;;;;;;;4.72;2.00;;;20.90;47.10;;;;;;5061882;28;20029;-60
2022/04/21 10:19:10;;;;;;;6.68;1.50;;;20.90;48.10;;;;;;5067884;28;20023;-60
2022/04/21 10:21:48;;;;;;;4.13;1.65;;;20.60;48.90;;;;;;5062139;28;20028;-60
2022/04/21 10:24:20;;;;;;;2.85;1.75;;;20.60;49.40;;;;;;5067701;28;20069;-60
2022/04/21 10:26:45;;;;;;;3.95;1.40;;;20.30;49.70;;;;;;5067764;28;20036;-59
2022/04/21 10:29:21;;;;;;;3.40;1.58;;;20.10;50.00;;;;;;5069743;28;20029;-60
2022/04/21 10:31:55;;;;;;;2.17;1.50;;;19.90;49.90;;;;;;5070645;28;20024;-59
2022/04/21 10:34:36;;;;;;;2.53;1.70;;;20.00;51.70;;;;;;5066921;28;20070;-58
2022/04/21 10:37:17;;;;;;;4.97;1.70;;;20.20;49.80;;;;;;5069557;28;20016;-60
2022/04/21 10:40:06;;;;;;;2.70;1.70;;;20.10;51.90;;;;;;5066311;28;20025;-59
2022/04/21 10:42:53;;;;;;;4.35;1.73;;;20.50;50.30;;;;;;5067972;28;20052;-60
2022/04/21 10:45:22;;;;;;;2.40;1.70;;;20.40;50.60;;;;;;5065771;28;20072;-60
2022/04/21 10:48:02;;;;;;;4.93;1.80;;;20.40;50.20;;;;;;5067083;28;20078;-60
2022/04/21 10:50:31;;;;;;;4.63;1.40;;;20.30;49.40;;;;;;5066397;28;20031;-58
2022/04/21 10:58:34;;;;;;;3.97;1.90;;;20.90;50.80;;;;;;5066961;28;20573;-60
2022/04/21 11:01:13;;;;;;;10.68;3.78;;;20.90;50.30;;;;;;5044726;28;20170;-60
2022/04/21 11:03:40;;;;;;;4.45;1.75;;;21.00;50.50;;;;;;5032005;28;20037;-60
2022/04/21 11:06:07;;;;;;;7.97;1.77;;;20.70;50.00;;;;;;5037896;28;20028;-59
2022/04/21 11:08:33;;;;;;;5.47;2.10;;;20.70;51.70;;;;;;5045308;28;20032;-60
2022/04/21 11:10:59;;;;;;;4.78;2.10;;;20.40;50.90;;;;;;5041369;28;20421;-59
2022/04/21 11:13:51;;;;;;;5.60;2.45;;;19.90;52.70;;;;;;5042422;28;20045;-60
2022/04/21 11:16:47;;;;;;;4.53;1.95;;;19.60;53.50;;;;;;5041130;28;20075;-60
2022/04/21 11:19:35;;;;;;;6.95;1.90;;;19.40;52.80;;;;;;5040726;28;20090;-60
2022/04/21 11:22:02;;;;;;;8.82;2.42;;;19.10;53.10;;;;;;5042246;28;20040;-60
2022/04/21 11:25:01;;;;;;;5.38;2.00;;;18.90;55.00;;;;;;5048054;28;20021;-60
2022/04/21 11:27:27;;;;;;;6.55;2.08;;;18.80;55.10;;;;;;5041956;28;20389;-60
2022/04/21 11:30:05;;;;;;;2.97;1.73;;;18.90;56.60;;;;;;5046682;28;20044;-61
2022/04/21 11:32:31;;;;;;;4.18;2.00;;;18.90;57.20;;;;;;5040525;28;20032;-62
2022/04/21 11:35:12;;;;;;;3.40;1.90;;;19.00;56.60;;;;;;5045782;28;20090;-62
2022/04/21 11:37:47;;;;;;;4.85;1.92;;;18.90;54.90;;;;;;5043793;28;20029;-61
2022/04/21 11:40:41;;;;;;;10.65;1.55;;;19.00;55.60;;;;;;5046180;28;20116;-60
2022/04/21 11:43:15;;;;;;;;;;;19.30;54.60;;;;;;5045872;28;20033;-62
2022/04/21 11:45:41;;;;;;;6.32;1.63;;;19.30;54.40;;;;;;5051165;28;19966;-61
2022/04/21 11:48:14;;;;;;;6.50;1.95;;;19.40;54.30;;;;;;5043607;28;20029;-61
2022/04/21 11:50:47;;;;;;;5.22;1.52;;;19.80;53.90;;;;;;5051767;28;20021;-62
2022/04/21 11:53:15;;;;;;;2.75;2.00;;;19.80;54.70;;;;;;5051322;28;20170;-61
2022/04/21 11:55:41;;;;;;;2.38;1.60;;;19.70;51.50;;;;;;5078956;22;20056;-58
2022/04/21 11:58:07;;;;;;;3.47;1.60;;;19.50;52.10;;;;;;5066238;28;20083;-58
2022/04/21 12:08:48;;;;;;;4.53;1.52;;;19.60;55.90;;;;;;5060738;28;20724;-58
2022/04/21 12:11:19;;;;;;;4.72;1.95;;;19.50;53.40;;;;;;5065955;28;20043;-59
2022/04/21 12:13:47;;;;;;;3.67;1.52;;;19.40;53.60;;;;;;5058725;28;20024;-58
2022/04/21 12:16:35;;;;;;;6.53;1.95;;;19.30;55.00;;;;;;5068436;28;20570;-59
2022/04/21 12:19:15;;;;;;;3.10;1.75;;;19.30;54.60;;;;;;5061207;28;20126;-58
2022/04/21 12:21:42;;;;;;;4.10;1.40;;;19.30;53.80;;;;;;5065103;28;20035;-59
2022/04/21 12:24:14;;;;;;;5.15;2.28;;;18.90;53.50;;;;;;5073038;28;20020;-58
2022/04/21 12:26:47;;;;;;;2.97;1.35;;;19.10;54.80;;;;;;5068896;28;20025;-58
2022/04/21 12:29:13;;;;;;;2.85;1.73;;;19.40;54.80;;;;;;5058859;28;20151;-61
2022/04/21 12:31:43;;;;;;;5.57;1.77;;;19.40;54.10;;;;;;5062121;28;20565;-58
2022/04/21 12:34:11;;;;;;;6.63;1.80;;;19.50;54.20;;;;;;5060211;28;20033;-60
2022/04/21 12:36:36;;;;;;;5.32;2.05;;;19.50;54.20;;;;;;5063867;28;20029;-59
2022/04/21 12:39:03;;;;;;;2.28;1.42;;;19.20;54.90;;;;;;5062472;28;20040;-58
2022/04/21 12:41:29;;;;;;;3.40;1.73;;;19.20;56.50;;;;;;5065412;28;20021;-60
2022/04/21 12:43:56;;;;;;;3.60;1.60;;;19.10;55.50;;;;;;5073766;28;20101;-56
2022/04/21 12:46:21;;;;;;;4.53;2.13;;;19.00;54.90;;;;;;5059118;28;20036;-60
2022/04/21 12:48:48;;;;;;;4.65;1.50;;;19.00;55.80;;;;;;5061042;28;20033;-60
2022/04/21 12:51:20;;;;;;;5.25;1.38;;;18.60;56.20;;;;;;5063417;28;20428;-60
2022/04/21 12:53:57;;;;;;;2.25;1.40;;;18.10;57.40;;;;;;5072047;28;20070;-57
2022/04/21 12:56:35;;;;;;;2.47;1.30;;;17.70;58.30;;;;;;5055090;28;20044;-57
2022/04/21 12:59:02;;;;;;;5.05;1.60;;;17.60;59.10;;;;;;5071207;28;20028;-58
2022/04/21 13:01:27;;;;;;;4.75;2.05;;;17.50;60.40;;;;;;5049006;28;20577;-55
2022/04/21 13:03:53;;;;;;;2.58;1.35;;;17.40;59.50;;;;;;5070644;28;20051;-61
2022/04/21 13:06:27;;;;;;;2.88;1.27;;;17.20;59.90;;;;;;5062964;28;20025;-61
2022/04/21 13:08:53;;;;;;;3.90;1.52;;;17.00;60.90;;;;;;5064732;28;20012;-57
2022/04/21 13:11:19;;;;;;;3.33;1.38;;;17.20;60.70;;;;;;5070368;28;20028;-59
2022/04/21 13:13:44;;;;;;;5.10;1.75;;;17.50;61.60;;;;;;5067020;28;20035;-57
2022/04/21 13:16:10;;;;;;;6.25;1.45;;;17.80;60.30;;;;;;5071043;28;20028;-61
2022/04/21 13:18:35;;;;;;;5.38;1.88;;;18.20;59.50;;;;;;5068449;28;20415;-59
2022/04/21 13:23:45;;;;;;;3.20;1.50;;;18.50;58.00;;;;;;5064358;28;20452;-58
2022/04/21 13:26:11;;;;;;;2.75;1.83;;;18.80;60.20;;;;;;5070900;28;20029;-59
2022/04/21 13:28:36;;;;;;;3.60;2.08;;;19.00;58.70;;;;;;5067542;28;20886;-59
2022/04/21 13:33:46;;;;;;;2.50;1.80;;;19.10;58.10;;;;;;5063509;28;20101;-57
2022/04/21 13:36:12;;;;;;;3.20;1.60;;;18.90;58.70;;;;;;5057561;28;20104;-56
2022/04/21 13:38:38;;;;;;;4.28;1.58;;;19.10;59.50;;;;;;5064364;28;20036;-56
2022/04/21 13:41:04;;;;;;;4.00;1.42;;;19.10;58.80;;;;;;5058800;28;20108;-58
2022/04/21 13:43:29;;;;;;;2.45;1.70;;;18.90;60.50;;;;;;5069537;28;20185;-58
2022/04/21 13:45:57;;;;;;;5.40;1.75;;;19.00;60.20;;;;;;5053194;28;20062;-58
2022/04/21 13:48:23;;;;;;;4.40;1.52;;;19.00;60.70;;;;;;5058019;28;20567;-54
2022/04/21 13:50:48;;;;;;;8.98;2.22;;;18.70;60.50;;;;;;5069322;28;20044;-54
2022/04/21 13:53:14;;;;;;;6.47;1.60;;;18.60;61.20;;;;;;5065207;28;20428;-58
2022/04/21 13:55:39;;;;;;;4.32;1.85;;;18.70;60.60;;;;;;5064372;28;20643;-54
2022/04/21 13:58:05;;;;;;;3.75;1.75;;;18.70;62.10;;;;;;5058289;28;20033;-60